sensor_id;sensor_type;location;lat;lon;timestamp;P1;durP1;ratioP1;P2;durP2;ratioP2
5414;SDS011;2730;51.512;7.504;2023-07-02T00:01:42;4.00;;;3.60;;
5414;SDS011;2730;51.512;7.504;2023-07-02T00:04:09;4.43;;;4.03;;
5414;SDS011;2730;51.512;7.504;2023-07-02T00:06:40;8.17;;;4.03;;
5414;SDS011;2730;51.512;7.504;2023-07-02T00:09:06;6.57;;;4.10;;
5414;SDS011;2730;51.512;7.504;2023-07-02T00:11:34;3.93;;;3.70;;
5414;SDS011;2730;51.512;7.504;2023-07-02T00:14:00;6.90;;;4.07;;
5414;SDS011;2730;51.512;7.504;2023-07-02T00:16:27;3.13;;;2.80;;
5414;SDS011;2730;51.512;7.504;2023-07-02T00:18:54;6.60;;;3.53;;
5414;SDS011;2730;51.512;7.504;2023-07-02T00:21:21;4.77;;;3.83;;
5414;SDS011;2730;51.512;7.504;2023-07-02T00:23:51;4.10;;;3.70;;
5414;SDS011;2730;51.512;7.504;2023-07-02T00:26:18;5.10;;;3.73;;
5414;SDS011;2730;51.512;7.504;2023-07-02T00:28:45;4.57;;;3.70;;
5414;SDS011;2730;51.512;7.504;2023-07-02T00:31:12;4.57;;;3.77;;
5414;SDS011;2730;51.512;7.504;2023-07-02T00:33:38;6.87;;;4.40;;
5414;SDS011;2730;51.512;7.504;2023-07-02T00:36:05;9.17;;;3.93;;
5414;SDS011;2730;51.512;7.504;2023-07-02T00:38:32;3.63;;;3.20;;
5414;SDS011;2730;51.512;7.504;2023-07-02T00:41:00;8.57;;;3.50;;
5414;SDS011;2730;51.512;7.504;2023-07-02T00:43:27;6.67;;;3.77;;
5414;SDS011;2730;51.512;7.504;2023-07-02T00:45:53;3.77;;;3.13;;
5414;SDS011;2730;51.512;7.504;2023-07-02T00:48:20;4.60;;;3.90;;
5414;SDS011;2730;51.512;7.504;2023-07-02T00:50:47;4.60;;;4.20;;
5414;SDS011;2730;51.512;7.504;2023-07-02T00:53:14;5.77;;;3.80;;
5414;SDS011;2730;51.512;7.504;2023-07-02T00:55:41;6.20;;;4.00;;
5414;SDS011;2730;51.512;7.504;2023-07-02T00:58:10;5.43;;;3.30;;
5414;SDS011;2730;51.512;7.504;2023-07-02T01:00:40;6.30;;;3.83;;
5414;SDS011;2730;51.512;7.504;2023-07-02T01:03:07;3.73;;;3.30;;
5414;SDS011;2730;51.512;7.504;2023-07-02T01:05:34;5.80;;;3.70;;
5414;SDS011;2730;51.512;7.504;2023-07-02T01:08:01;5.53;;;3.30;;
5414;SDS011;2730;51.512;7.504;2023-07-02T01:10:28;4.40;;;3.60;;
5414;SDS011;2730;51.512;7.504;2023-07-02T01:12:56;3.80;;;3.17;;
5414;SDS011;2730;51.512;7.504;2023-07-02T01:15:27;6.17;;;4.10;;
5414;SDS011;2730;51.512;7.504;2023-07-02T01:17:54;6.07;;;3.90;;
5414;SDS011;2730;51.512;7.504;2023-07-02T01:20:24;9.77;;;4.00;;
5414;SDS011;2730;51.512;7.504;2023-07-02T01:22:52;5.10;;;3.00;;
5414;SDS011;2730;51.512;7.504;2023-07-02T01:25:19;8.23;;;3.90;;
5414;SDS011;2730;51.512;7.504;2023-07-02T01:27:49;4.83;;;3.47;;
5414;SDS011;2730;51.512;7.504;2023-07-02T01:30:16;4.53;;;3.30;;
5414;SDS011;2730;51.512;7.504;2023-07-02T01:32:43;4.70;;;3.73;;
5414;SDS011;2730;51.512;7.504;2023-07-02T01:35:10;7.50;;;3.53;;
5414;SDS011;2730;51.512;7.504;2023-07-02T01:37:38;7.87;;;4.17;;
5414;SDS011;2730;51.512;7.504;2023-07-02T01:40:05;8.73;;;4.27;;
5414;SDS011;2730;51.512;7.504;2023-07-02T01:42:33;7.43;;;4.03;;
5414;SDS011;2730;51.512;7.504;2023-07-02T01:45:00;6.67;;;3.73;;
5414;SDS011;2730;51.512;7.504;2023-07-02T01:47:27;13.83;;;6.10;;
5414;SDS011;2730;51.512;7.504;2023-07-02T01:49:53;7.10;;;4.13;;
5414;SDS011;2730;51.512;7.504;2023-07-02T01:52:20;6.13;;;3.80;;
5414;SDS011;2730;51.512;7.504;2023-07-02T01:54:48;9.00;;;4.90;;
5414;SDS011;2730;51.512;7.504;2023-07-02T01:57:17;9.37;;;4.43;;
5414;SDS011;2730;51.512;7.504;2023-07-02T01:59:44;5.73;;;5.13;;
5414;SDS011;2730;51.512;7.504;2023-07-02T02:02:10;12.40;;;4.10;;
5414;SDS011;2730;51.512;7.504;2023-07-02T02:04:37;10.97;;;4.23;;
5414;SDS011;2730;51.512;7.504;2023-07-02T02:07:04;11.07;;;5.10;;
5414;SDS011;2730;51.512;7.504;2023-07-02T02:09:31;8.37;;;4.50;;
5414;SDS011;2730;51.512;7.504;2023-07-02T02:11:59;12.13;;;5.60;;
5414;SDS011;2730;51.512;7.504;2023-07-02T02:14:26;10.27;;;4.50;;
5414;SDS011;2730;51.512;7.504;2023-07-02T02:16:53;8.27;;;4.33;;
5414;SDS011;2730;51.512;7.504;2023-07-02T02:19:19;7.33;;;4.33;;
5414;SDS011;2730;51.512;7.504;2023-07-02T02:21:46;7.37;;;4.43;;
5414;SDS011;2730;51.512;7.504;2023-07-02T02:24:13;6.47;;;4.07;;
5414;SDS011;2730;51.512;7.504;2023-07-02T02:26:40;8.83;;;3.70;;
5414;SDS011;2730;51.512;7.504;2023-07-02T02:29:08;7.13;;;4.20;;
5414;SDS011;2730;51.512;7.504;2023-07-02T02:31:34;14.90;;;4.43;;
5414;SDS011;2730;51.512;7.504;2023-07-02T02:34:01;10.77;;;4.43;;
5414;SDS011;2730;51.512;7.504;2023-07-02T02:36:29;8.90;;;4.43;;
5414;SDS011;2730;51.512;7.504;2023-07-02T02:38:56;9.90;;;4.60;;
5414;SDS011;2730;51.512;7.504;2023-07-02T02:41:22;8.83;;;4.10;;
5414;SDS011;2730;51.512;7.504;2023-07-02T02:43:49;9.97;;;4.40;;
5414;SDS011;2730;51.512;7.504;2023-07-02T02:46:20;17.53;;;4.80;;
5414;SDS011;2730;51.512;7.504;2023-07-02T02:48:47;13.03;;;4.10;;
5414;SDS011;2730;51.512;7.504;2023-07-02T02:51:14;9.60;;;4.93;;
5414;SDS011;2730;51.512;7.504;2023-07-02T02:53:41;9.83;;;5.60;;
5414;SDS011;2730;51.512;7.504;2023-07-02T02:56:07;10.40;;;4.20;;
5414;SDS011;2730;51.512;7.504;2023-07-02T02:58:34;12.83;;;4.90;;
5414;SDS011;2730;51.512;7.504;2023-07-02T03:01:01;7.20;;;4.97;;
5414;SDS011;2730;51.512;7.504;2023-07-02T03:03:29;9.30;;;5.40;;
5414;SDS011;2730;51.512;7.504;2023-07-02T03:05:59;16.27;;;5.43;;
5414;SDS011;2730;51.512;7.504;2023-07-02T03:08:26;13.30;;;5.20;;
5414;SDS011;2730;51.512;7.504;2023-07-02T03:10:53;13.63;;;6.83;;
5414;SDS011;2730;51.512;7.504;2023-07-02T03:13:19;8.60;;;5.47;;
5414;SDS011;2730;51.512;7.504;2023-07-02T03:15:46;16.30;;;5.70;;
5414;SDS011;2730;51.512;7.504;2023-07-02T03:18:13;16.47;;;6.33;;
5414;SDS011;2730;51.512;7.504;2023-07-02T03:20:41;18.17;;;7.00;;
5414;SDS011;2730;51.512;7.504;2023-07-02T03:23:08;12.13;;;7.80;;
5414;SDS011;2730;51.512;7.504;2023-07-02T03:25:35;18.60;;;6.63;;
5414;SDS011;2730;51.512;7.504;2023-07-02T03:28:02;17.37;;;7.53;;
5414;SDS011;2730;51.512;7.504;2023-07-02T03:30:29;14.70;;;7.00;;
5414;SDS011;2730;51.512;7.504;2023-07-02T03:32:55;16.03;;;7.17;;
5414;SDS011;2730;51.512;7.504;2023-07-02T03:35:23;13.07;;;7.20;;
5414;SDS011;2730;51.512;7.504;2023-07-02T03:37:51;17.13;;;8.60;;
5414;SDS011;2730;51.512;7.504;2023-07-02T03:40:18;18.90;;;7.43;;
5414;SDS011;2730;51.512;7.504;2023-07-02T03:42:45;28.43;;;8.70;;
5414;SDS011;2730;51.512;7.504;2023-07-02T03:45:11;13.13;;;7.77;;
5414;SDS011;2730;51.512;7.504;2023-07-02T03:47:38;19.23;;;7.80;;
5414;SDS011;2730;51.512;7.504;2023-07-02T03:50:05;13.80;;;8.27;;
5414;SDS011;2730;51.512;7.504;2023-07-02T03:52:32;20.73;;;8.30;;
5414;SDS011;2730;51.512;7.504;2023-07-02T03:55:00;22.07;;;8.93;;
5414;SDS011;2730;51.512;7.504;2023-07-02T03:57:27;22.50;;;8.50;;
5414;SDS011;2730;51.512;7.504;2023-07-02T03:59:55;17.80;;;8.10;;
5414;SDS011;2730;51.512;7.504;2023-07-02T04:02:22;22.60;;;9.23;;
5414;SDS011;2730;51.512;7.504;2023-07-02T04:04:49;20.17;;;9.23;;
5414;SDS011;2730;51.512;7.504;2023-07-02T04:07:15;22.97;;;8.27;;
5414;SDS011;2730;51.512;7.504;2023-07-02T04:09:42;25.00;;;8.47;;
5414;SDS011;2730;51.512;7.504;2023-07-02T04:12:10;20.83;;;10.43;;
5414;SDS011;2730;51.512;7.504;2023-07-02T04:14:37;20.23;;;8.50;;
5414;SDS011;2730;51.512;7.504;2023-07-02T04:17:04;20.67;;;9.80;;
5414;SDS011;2730;51.512;7.504;2023-07-02T04:19:31;18.03;;;9.67;;
5414;SDS011;2730;51.512;7.504;2023-07-02T04:21:58;20.23;;;9.17;;
5414;SDS011;2730;51.512;7.504;2023-07-02T04:24:25;18.07;;;8.77;;
5414;SDS011;2730;51.512;7.504;2023-07-02T04:26:51;28.00;;;9.30;;
5414;SDS011;2730;51.512;7.504;2023-07-02T04:29:20;30.30;;;11.37;;
5414;SDS011;2730;51.512;7.504;2023-07-02T04:31:47;16.73;;;9.67;;
5414;SDS011;2730;51.512;7.504;2023-07-02T04:34:13;19.70;;;9.40;;
5414;SDS011;2730;51.512;7.504;2023-07-02T04:36:40;21.50;;;9.87;;
5414;SDS011;2730;51.512;7.504;2023-07-02T04:39:08;25.37;;;9.73;;
5414;SDS011;2730;51.512;7.504;2023-07-02T04:41:35;24.00;;;10.03;;
5414;SDS011;2730;51.512;7.504;2023-07-02T04:44:02;19.93;;;9.83;;
5414;SDS011;2730;51.512;7.504;2023-07-02T04:46:31;22.53;;;9.37;;
5414;SDS011;2730;51.512;7.504;2023-07-02T04:48:58;30.23;;;10.17;;
5414;SDS011;2730;51.512;7.504;2023-07-02T04:51:25;22.20;;;9.10;;
5414;SDS011;2730;51.512;7.504;2023-07-02T04:53:51;18.20;;;10.00;;
5414;SDS011;2730;51.512;7.504;2023-07-02T04:56:18;24.43;;;10.20;;
5414;SDS011;2730;51.512;7.504;2023-07-02T04:58:45;24.67;;;10.50;;
5414;SDS011;2730;51.512;7.504;2023-07-02T05:01:12;26.30;;;9.90;;
5414;SDS011;2730;51.512;7.504;2023-07-02T05:03:40;28.13;;;10.50;;
5414;SDS011;2730;51.512;7.504;2023-07-02T05:06:07;19.73;;;9.67;;
5414;SDS011;2730;51.512;7.504;2023-07-02T05:08:33;18.87;;;9.23;;
5414;SDS011;2730;51.512;7.504;2023-07-02T05:11:01;20.50;;;10.13;;
5414;SDS011;2730;51.512;7.504;2023-07-02T05:13:28;22.93;;;9.80;;
5414;SDS011;2730;51.512;7.504;2023-07-02T05:15:55;29.53;;;12.40;;
5414;SDS011;2730;51.512;7.504;2023-07-02T05:18:21;20.93;;;10.43;;
5414;SDS011;2730;51.512;7.504;2023-07-02T05:20:49;24.20;;;11.07;;
5414;SDS011;2730;51.512;7.504;2023-07-02T05:23:16;25.60;;;11.07;;
5414;SDS011;2730;51.512;7.504;2023-07-02T05:25:43;26.80;;;10.97;;
5414;SDS011;2730;51.512;7.504;2023-07-02T05:28:11;21.10;;;10.73;;
5414;SDS011;2730;51.512;7.504;2023-07-02T05:30:37;26.10;;;11.93;;
5414;SDS011;2730;51.512;7.504;2023-07-02T05:33:04;21.63;;;11.33;;
5414;SDS011;2730;51.512;7.504;2023-07-02T05:35:31;26.10;;;11.80;;
5414;SDS011;2730;51.512;7.504;2023-07-02T05:37:59;26.33;;;12.33;;
5414;SDS011;2730;51.512;7.504;2023-07-02T05:40:26;30.20;;;11.50;;
5414;SDS011;2730;51.512;7.504;2023-07-02T05:42:52;28.67;;;11.80;;
5414;SDS011;2730;51.512;7.504;2023-07-02T05:45:19;31.10;;;12.30;;
5414;SDS011;2730;51.512;7.504;2023-07-02T05:47:46;31.80;;;11.80;;
5414;SDS011;2730;51.512;7.504;2023-07-02T05:50:13;26.50;;;11.43;;
5414;SDS011;2730;51.512;7.504;2023-07-02T05:52:39;27.00;;;12.47;;
5414;SDS011;2730;51.512;7.504;2023-07-02T05:55:08;19.80;;;10.37;;
5414;SDS011;2730;51.512;7.504;2023-07-02T05:57:36;28.87;;;12.23;;
5414;SDS011;2730;51.512;7.504;2023-07-02T06:00:03;27.93;;;13.77;;
5414;SDS011;2730;51.512;7.504;2023-07-02T06:02:31;32.73;;;12.60;;
5414;SDS011;2730;51.512;7.504;2023-07-02T06:04:58;29.60;;;12.80;;
5414;SDS011;2730;51.512;7.504;2023-07-02T06:07:26;31.60;;;12.47;;
5414;SDS011;2730;51.512;7.504;2023-07-02T06:09:53;26.67;;;11.83;;
5414;SDS011;2730;51.512;7.504;2023-07-02T06:12:22;25.73;;;12.30;;
5414;SDS011;2730;51.512;7.504;2023-07-02T06:14:49;28.67;;;12.63;;
5414;SDS011;2730;51.512;7.504;2023-07-02T06:17:16;28.93;;;13.37;;
5414;SDS011;2730;51.512;7.504;2023-07-02T06:19:44;28.53;;;12.70;;
5414;SDS011;2730;51.512;7.504;2023-07-02T06:22:11;34.43;;;13.97;;
5414;SDS011;2730;51.512;7.504;2023-07-02T06:24:38;33.40;;;13.33;;
5414;SDS011;2730;51.512;7.504;2023-07-02T06:27:05;28.73;;;11.73;;
5414;SDS011;2730;51.512;7.504;2023-07-02T06:29:33;25.00;;;12.27;;
5414;SDS011;2730;51.512;7.504;2023-07-02T06:32:00;26.33;;;11.90;;
5414;SDS011;2730;51.512;7.504;2023-07-02T06:34:27;26.17;;;11.27;;
5414;SDS011;2730;51.512;7.504;2023-07-02T06:36:53;27.30;;;11.13;;
5414;SDS011;2730;51.512;7.504;2023-07-02T06:39:20;28.70;;;11.27;;
5414;SDS011;2730;51.512;7.504;2023-07-02T06:41:47;29.50;;;13.10;;
5414;SDS011;2730;51.512;7.504;2023-07-02T06:44:14;25.07;;;11.37;;
5414;SDS011;2730;51.512;7.504;2023-07-02T06:46:42;23.03;;;11.87;;
5414;SDS011;2730;51.512;7.504;2023-07-02T06:49:12;27.97;;;12.23;;
5414;SDS011;2730;51.512;7.504;2023-07-02T06:51:38;21.53;;;10.73;;
5414;SDS011;2730;51.512;7.504;2023-07-02T06:54:06;25.70;;;11.50;;
5414;SDS011;2730;51.512;7.504;2023-07-02T06:56:33;23.70;;;11.07;;
5414;SDS011;2730;51.512;7.504;2023-07-02T06:59:00;27.47;;;11.17;;
5414;SDS011;2730;51.512;7.504;2023-07-02T07:01:27;23.67;;;10.27;;
5414;SDS011;2730;51.512;7.504;2023-07-02T07:03:55;25.03;;;9.80;;
5414;SDS011;2730;51.512;7.504;2023-07-02T07:06:22;22.10;;;10.23;;
5414;SDS011;2730;51.512;7.504;2023-07-02T07:08:48;24.50;;;9.97;;
5414;SDS011;2730;51.512;7.504;2023-07-02T07:11:15;19.40;;;10.20;;
5414;SDS011;2730;51.512;7.504;2023-07-02T07:13:42;21.93;;;10.17;;
5414;SDS011;2730;51.512;7.504;2023-07-02T07:16:09;23.83;;;11.30;;
5414;SDS011;2730;51.512;7.504;2023-07-02T07:18:37;32.53;;;11.20;;
5414;SDS011;2730;51.512;7.504;2023-07-02T07:21:05;35.13;;;11.80;;
5414;SDS011;2730;51.512;7.504;2023-07-02T07:23:32;18.03;;;9.93;;
5414;SDS011;2730;51.512;7.504;2023-07-02T07:25:58;23.23;;;9.50;;
5414;SDS011;2730;51.512;7.504;2023-07-02T07:28:25;19.13;;;9.30;;
5414;SDS011;2730;51.512;7.504;2023-07-02T07:30:52;23.07;;;9.40;;
5414;SDS011;2730;51.512;7.504;2023-07-02T07:33:18;21.90;;;9.37;;
5414;SDS011;2730;51.512;7.504;2023-07-02T07:35:45;23.20;;;9.40;;
5414;SDS011;2730;51.512;7.504;2023-07-02T07:38:14;22.97;;;9.70;;
5414;SDS011;2730;51.512;7.504;2023-07-02T07:40:41;18.40;;;8.53;;
5414;SDS011;2730;51.512;7.504;2023-07-02T07:43:09;18.40;;;9.57;;
5414;SDS011;2730;51.512;7.504;2023-07-02T07:45:35;22.00;;;9.07;;
5414;SDS011;2730;51.512;7.504;2023-07-02T07:48:02;20.60;;;9.80;;
5414;SDS011;2730;51.512;7.504;2023-07-02T07:50:30;14.80;;;8.37;;
5414;SDS011;2730;51.512;7.504;2023-07-02T07:52:56;20.20;;;8.83;;
5414;SDS011;2730;51.512;7.504;2023-07-02T07:55:25;18.57;;;9.37;;
5414;SDS011;2730;51.512;7.504;2023-07-02T07:57:52;19.00;;;8.93;;
5414;SDS011;2730;51.512;7.504;2023-07-02T08:00:19;19.13;;;9.73;;
5414;SDS011;2730;51.512;7.504;2023-07-02T08:02:46;19.53;;;8.53;;
5414;SDS011;2730;51.512;7.504;2023-07-02T08:05:13;23.40;;;9.70;;
5414;SDS011;2730;51.512;7.504;2023-07-02T08:07:40;23.57;;;10.17;;
5414;SDS011;2730;51.512;7.504;2023-07-02T08:10:07;18.40;;;9.27;;
5414;SDS011;2730;51.512;7.504;2023-07-02T08:12:36;16.27;;;8.20;;
5414;SDS011;2730;51.512;7.504;2023-07-02T08:15:03;24.77;;;9.50;;
5414;SDS011;2730;51.512;7.504;2023-07-02T08:17:30;17.17;;;8.87;;
5414;SDS011;2730;51.512;7.504;2023-07-02T08:19:57;20.10;;;9.40;;
5414;SDS011;2730;51.512;7.504;2023-07-02T08:22:24;20.50;;;9.27;;
5414;SDS011;2730;51.512;7.504;2023-07-02T08:24:51;23.50;;;9.30;;
5414;SDS011;2730;51.512;7.504;2023-07-02T08:27:18;21.70;;;9.50;;
5414;SDS011;2730;51.512;7.504;2023-07-02T08:29:46;19.30;;;8.90;;
5414;SDS011;2730;51.512;7.504;2023-07-02T08:32:13;24.03;;;9.63;;
5414;SDS011;2730;51.512;7.504;2023-07-02T08:34:40;19.20;;;8.60;;
5414;SDS011;2730;51.512;7.504;2023-07-02T08:37:07;21.57;;;8.47;;
5414;SDS011;2730;51.512;7.504;2023-07-02T08:39:34;22.00;;;8.53;;
5414;SDS011;2730;51.512;7.504;2023-07-02T08:42:01;21.47;;;8.43;;
5414;SDS011;2730;51.512;7.504;2023-07-02T08:44:27;20.83;;;9.10;;
5414;SDS011;2730;51.512;7.504;2023-07-02T08:46:55;28.60;;;9.93;;
5414;SDS011;2730;51.512;7.504;2023-07-02T08:49:22;20.60;;;8.93;;
5414;SDS011;2730;51.512;7.504;2023-07-02T08:51:50;19.47;;;8.90;;
5414;SDS011;2730;51.512;7.504;2023-07-02T08:54:17;16.73;;;7.93;;
5414;SDS011;2730;51.512;7.504;2023-07-02T08:56:45;23.07;;;8.07;;
5414;SDS011;2730;51.512;7.504;2023-07-02T08:59:12;18.97;;;8.47;;
5414;SDS011;2730;51.512;7.504;2023-07-02T09:01:45;13.47;;;7.27;;
5414;SDS011;2730;51.512;7.504;2023-07-02T09:04:17;15.90;;;6.83;;
5414;SDS011;2730;51.512;7.504;2023-07-02T09:06:45;19.47;;;7.40;;
5414;SDS011;2730;51.512;7.504;2023-07-02T09:09:12;15.80;;;7.23;;
5414;SDS011;2730;51.512;7.504;2023-07-02T09:11:49;17.03;;;7.23;;
5414;SDS011;2730;51.512;7.504;2023-07-02T09:14:27;19.40;;;7.77;;
5414;SDS011;2730;51.512;7.504;2023-07-02T09:17:04;17.77;;;7.33;;
5414;SDS011;2730;51.512;7.504;2023-07-02T09:19:35;15.77;;;7.50;;
5414;SDS011;2730;51.512;7.504;2023-07-02T09:22:02;13.60;;;7.70;;
5414;SDS011;2730;51.512;7.504;2023-07-02T09:24:30;18.10;;;9.27;;
5414;SDS011;2730;51.512;7.504;2023-07-02T09:26:58;23.50;;;7.63;;
5414;SDS011;2730;51.512;7.504;2023-07-02T09:29:26;13.63;;;6.70;;
5414;SDS011;2730;51.512;7.504;2023-07-02T09:31:55;17.10;;;6.70;;
5414;SDS011;2730;51.512;7.504;2023-07-02T09:34:27;13.00;;;6.23;;
5414;SDS011;2730;51.512;7.504;2023-07-02T09:36:56;17.30;;;7.10;;
5414;SDS011;2730;51.512;7.504;2023-07-02T09:39:27;23.17;;;6.93;;
5414;SDS011;2730;51.512;7.504;2023-07-02T09:41:55;13.67;;;7.47;;
5414;SDS011;2730;51.512;7.504;2023-07-02T09:44:24;18.00;;;7.87;;
5414;SDS011;2730;51.512;7.504;2023-07-02T09:46:53;20.47;;;7.47;;
5414;SDS011;2730;51.512;7.504;2023-07-02T09:49:24;15.60;;;6.50;;
5414;SDS011;2730;51.512;7.504;2023-07-02T09:51:52;15.03;;;6.87;;
5414;SDS011;2730;51.512;7.504;2023-07-02T09:54:21;15.67;;;5.90;;
5414;SDS011;2730;51.512;7.504;2023-07-02T09:56:48;13.40;;;6.63;;
5414;SDS011;2730;51.512;7.504;2023-07-02T09:59:15;13.23;;;6.87;;
5414;SDS011;2730;51.512;7.504;2023-07-02T10:01:41;11.47;;;6.30;;
5414;SDS011;2730;51.512;7.504;2023-07-02T10:04:12;16.23;;;6.47;;
5414;SDS011;2730;51.512;7.504;2023-07-02T10:06:45;10.10;;;5.60;;
5414;SDS011;2730;51.512;7.504;2023-07-02T10:09:13;14.25;;;6.95;;
5414;SDS011;2730;51.512;7.504;2023-07-02T10:11:42;17.57;;;7.07;;
5414;SDS011;2730;51.512;7.504;2023-07-02T10:14:09;18.50;;;6.17;;
5414;SDS011;2730;51.512;7.504;2023-07-02T10:16:48;7.00;;;5.37;;
5414;SDS011;2730;51.512;7.504;2023-07-02T10:19:17;10.40;;;6.43;;
5414;SDS011;2730;51.512;7.504;2023-07-02T10:21:45;16.40;;;7.47;;
5414;SDS011;2730;51.512;7.504;2023-07-02T10:24:14;15.30;;;6.67;;
5414;SDS011;2730;51.512;7.504;2023-07-02T10:26:53;11.33;;;5.87;;
5414;SDS011;2730;51.512;7.504;2023-07-02T10:29:22;9.07;;;5.83;;
5414;SDS011;2730;51.512;7.504;2023-07-02T10:31:49;11.47;;;6.53;;
5414;SDS011;2730;51.512;7.504;2023-07-02T10:34:16;10.40;;;5.60;;
5414;SDS011;2730;51.512;7.504;2023-07-02T10:36:53;14.30;;;6.10;;
5414;SDS011;2730;51.512;7.504;2023-07-02T10:39:20;13.10;;;7.13;;
5414;SDS011;2730;51.512;7.504;2023-07-02T10:41:47;14.90;;;6.80;;
5414;SDS011;2730;51.512;7.504;2023-07-02T10:44:15;26.10;;;7.23;;
5414;SDS011;2730;51.512;7.504;2023-07-02T10:46:42;12.40;;;6.50;;
5414;SDS011;2730;51.512;7.504;2023-07-02T10:49:10;16.30;;;6.67;;
5414;SDS011;2730;51.512;7.504;2023-07-02T10:51:37;16.27;;;7.77;;
5414;SDS011;2730;51.512;7.504;2023-07-02T10:54:04;15.90;;;6.80;;
5414;SDS011;2730;51.512;7.504;2023-07-02T10:56:31;17.33;;;6.40;;
5414;SDS011;2730;51.512;7.504;2023-07-02T10:58:58;10.80;;;6.10;;
5414;SDS011;2730;51.512;7.504;2023-07-02T11:01:27;10.03;;;5.57;;
5414;SDS011;2730;51.512;7.504;2023-07-02T11:03:56;13.97;;;5.27;;
5414;SDS011;2730;51.512;7.504;2023-07-02T11:06:24;18.17;;;6.47;;
5414;SDS011;2730;51.512;7.504;2023-07-02T11:08:51;21.17;;;6.37;;
5414;SDS011;2730;51.512;7.504;2023-07-02T11:11:19;16.30;;;6.70;;
5414;SDS011;2730;51.512;7.504;2023-07-02T11:13:47;14.90;;;6.63;;
5414;SDS011;2730;51.512;7.504;2023-07-02T11:16:19;13.13;;;6.50;;
5414;SDS011;2730;51.512;7.504;2023-07-02T11:18:50;14.33;;;5.87;;
5414;SDS011;2730;51.512;7.504;2023-07-02T11:21:18;13.77;;;6.20;;
5414;SDS011;2730;51.512;7.504;2023-07-02T11:23:44;15.67;;;6.90;;
5414;SDS011;2730;51.512;7.504;2023-07-02T11:26:11;12.83;;;6.37;;
5414;SDS011;2730;51.512;7.504;2023-07-02T11:28:47;13.30;;;6.57;;
5414;SDS011;2730;51.512;7.504;2023-07-02T11:31:23;13.60;;;6.50;;
5414;SDS011;2730;51.512;7.504;2023-07-02T11:33:53;18.73;;;6.20;;
5414;SDS011;2730;51.512;7.504;2023-07-02T11:36:20;13.70;;;7.37;;
5414;SDS011;2730;51.512;7.504;2023-07-02T11:38:49;12.40;;;6.77;;
5414;SDS011;2730;51.512;7.504;2023-07-02T11:41:16;15.80;;;6.37;;
5414;SDS011;2730;51.512;7.504;2023-07-02T11:43:43;12.47;;;6.13;;
5414;SDS011;2730;51.512;7.504;2023-07-02T11:46:10;12.67;;;6.90;;
5414;SDS011;2730;51.512;7.504;2023-07-02T11:48:37;11.87;;;6.10;;
5414;SDS011;2730;51.512;7.504;2023-07-02T11:51:05;16.77;;;6.43;;
5414;SDS011;2730;51.512;7.504;2023-07-02T11:53:32;13.90;;;6.03;;
5414;SDS011;2730;51.512;7.504;2023-07-02T11:55:59;12.10;;;5.60;;
5414;SDS011;2730;51.512;7.504;2023-07-02T11:58:26;15.97;;;6.40;;
5414;SDS011;2730;51.512;7.504;2023-07-02T12:00:52;17.97;;;6.60;;
5414;SDS011;2730;51.512;7.504;2023-07-02T12:03:19;18.50;;;6.93;;
5414;SDS011;2730;51.512;7.504;2023-07-02T12:05:46;15.80;;;7.00;;
5414;SDS011;2730;51.512;7.504;2023-07-02T12:08:14;15.70;;;6.80;;
5414;SDS011;2730;51.512;7.504;2023-07-02T12:10:41;12.03;;;5.30;;
5414;SDS011;2730;51.512;7.504;2023-07-02T12:13:08;11.87;;;4.87;;
5414;SDS011;2730;51.512;7.504;2023-07-02T12:15:34;17.37;;;6.13;;
5414;SDS011;2730;51.512;7.504;2023-07-02T12:18:01;15.40;;;6.13;;
5414;SDS011;2730;51.512;7.504;2023-07-02T12:20:28;19.40;;;6.50;;
5414;SDS011;2730;51.512;7.504;2023-07-02T12:22:55;10.37;;;5.63;;
5414;SDS011;2730;51.512;7.504;2023-07-02T12:25:23;12.13;;;6.00;;
5414;SDS011;2730;51.512;7.504;2023-07-02T12:27:50;13.30;;;6.07;;
5414;SDS011;2730;51.512;7.504;2023-07-02T12:30:18;9.57;;;5.50;;
5414;SDS011;2730;51.512;7.504;2023-07-02T12:32:45;12.70;;;5.60;;
5414;SDS011;2730;51.512;7.504;2023-07-02T12:35:12;12.70;;;5.37;;
5414;SDS011;2730;51.512;7.504;2023-07-02T12:37:45;10.40;;;5.50;;
5414;SDS011;2730;51.512;7.504;2023-07-02T12:40:12;11.70;;;6.17;;
5414;SDS011;2730;51.512;7.504;2023-07-02T12:42:41;13.30;;;5.67;;
5414;SDS011;2730;51.512;7.504;2023-07-02T12:45:09;10.03;;;5.00;;
5414;SDS011;2730;51.512;7.504;2023-07-02T12:47:37;12.97;;;6.43;;
5414;SDS011;2730;51.512;7.504;2023-07-02T12:50:04;15.90;;;6.10;;
5414;SDS011;2730;51.512;7.504;2023-07-02T12:52:32;11.93;;;5.37;;
5414;SDS011;2730;51.512;7.504;2023-07-02T12:54:59;9.43;;;5.40;;
5414;SDS011;2730;51.512;7.504;2023-07-02T12:57:26;16.73;;;5.03;;
5414;SDS011;2730;51.512;7.504;2023-07-02T12:59:54;9.00;;;5.10;;
5414;SDS011;2730;51.512;7.504;2023-07-02T13:02:22;14.20;;;5.73;;
5414;SDS011;2730;51.512;7.504;2023-07-02T13:04:49;8.90;;;4.50;;
5414;SDS011;2730;51.512;7.504;2023-07-02T13:07:17;10.67;;;4.80;;
5414;SDS011;2730;51.512;7.504;2023-07-02T13:09:44;11.17;;;4.60;;
5414;SDS011;2730;51.512;7.504;2023-07-02T13:12:11;11.33;;;4.50;;
5414;SDS011;2730;51.512;7.504;2023-07-02T13:14:38;13.03;;;4.60;;
5414;SDS011;2730;51.512;7.504;2023-07-02T13:17:06;8.30;;;4.63;;
5414;SDS011;2730;51.512;7.504;2023-07-02T13:19:33;20.07;;;5.10;;
5414;SDS011;2730;51.512;7.504;2023-07-02T13:22:00;12.47;;;5.50;;
5414;SDS011;2730;51.512;7.504;2023-07-02T13:24:28;9.90;;;5.00;;
5414;SDS011;2730;51.512;7.504;2023-07-02T13:27:01;11.40;;;5.73;;
5414;SDS011;2730;51.512;7.504;2023-07-02T13:29:30;10.60;;;5.00;;
5414;SDS011;2730;51.512;7.504;2023-07-02T13:31:56;14.53;;;5.37;;
5414;SDS011;2730;51.512;7.504;2023-07-02T13:34:24;13.53;;;5.63;;
5414;SDS011;2730;51.512;7.504;2023-07-02T13:36:51;12.63;;;5.30;;
5414;SDS011;2730;51.512;7.504;2023-07-02T13:39:18;13.40;;;5.77;;
5414;SDS011;2730;51.512;7.504;2023-07-02T13:41:45;12.93;;;5.17;;
5414;SDS011;2730;51.512;7.504;2023-07-02T13:44:11;10.30;;;5.10;;
5414;SDS011;2730;51.512;7.504;2023-07-02T13:46:38;12.87;;;5.37;;
5414;SDS011;2730;51.512;7.504;2023-07-02T13:49:05;7.53;;;4.93;;
5414;SDS011;2730;51.512;7.504;2023-07-02T13:51:33;11.80;;;4.73;;
5414;SDS011;2730;51.512;7.504;2023-07-02T13:54:00;16.13;;;5.43;;
5414;SDS011;2730;51.512;7.504;2023-07-02T13:56:27;11.73;;;5.83;;
5414;SDS011;2730;51.512;7.504;2023-07-02T13:59:02;12.00;;;5.60;;
5414;SDS011;2730;51.512;7.504;2023-07-02T14:01:29;13.70;;;5.67;;
5414;SDS011;2730;51.512;7.504;2023-07-02T14:03:57;8.97;;;5.00;;
5414;SDS011;2730;51.512;7.504;2023-07-02T14:06:25;11.40;;;4.93;;
5414;SDS011;2730;51.512;7.504;2023-07-02T14:08:52;9.70;;;5.60;;
5414;SDS011;2730;51.512;7.504;2023-07-02T14:11:19;13.07;;;5.70;;
5414;SDS011;2730;51.512;7.504;2023-07-02T14:13:47;14.97;;;5.63;;
5414;SDS011;2730;51.512;7.504;2023-07-02T14:16:15;10.00;;;6.07;;
5414;SDS011;2730;51.512;7.504;2023-07-02T14:18:41;13.00;;;6.53;;
5414;SDS011;2730;51.512;7.504;2023-07-02T14:21:08;12.80;;;5.60;;
5414;SDS011;2730;51.512;7.504;2023-07-02T14:23:35;11.67;;;5.37;;
5414;SDS011;2730;51.512;7.504;2023-07-02T14:26:02;10.93;;;6.00;;
5414;SDS011;2730;51.512;7.504;2023-07-02T14:28:28;18.40;;;6.90;;
5414;SDS011;2730;51.512;7.504;2023-07-02T14:30:56;13.47;;;6.03;;
5414;SDS011;2730;51.512;7.504;2023-07-02T14:33:25;15.70;;;6.83;;
5414;SDS011;2730;51.512;7.504;2023-07-02T14:35:53;15.03;;;6.50;;
5414;SDS011;2730;51.512;7.504;2023-07-02T14:38:20;10.23;;;6.23;;
5414;SDS011;2730;51.512;7.504;2023-07-02T14:40:48;9.30;;;6.30;;
5414;SDS011;2730;51.512;7.504;2023-07-02T14:43:15;12.83;;;6.37;;
5414;SDS011;2730;51.512;7.504;2023-07-02T14:45:43;16.67;;;7.97;;
5414;SDS011;2730;51.512;7.504;2023-07-02T14:48:12;14.73;;;6.43;;
5414;SDS011;2730;51.512;7.504;2023-07-02T14:50:43;16.93;;;6.77;;
5414;SDS011;2730;51.512;7.504;2023-07-02T14:53:10;10.73;;;6.50;;
5414;SDS011;2730;51.512;7.504;2023-07-02T14:55:37;22.90;;;7.60;;
5414;SDS011;2730;51.512;7.504;2023-07-02T14:58:05;11.60;;;6.33;;
5414;SDS011;2730;51.512;7.504;2023-07-02T15:00:32;17.40;;;7.77;;
5414;SDS011;2730;51.512;7.504;2023-07-02T15:03:00;10.87;;;6.57;;
5414;SDS011;2730;51.512;7.504;2023-07-02T15:05:27;19.20;;;6.97;;